Flight Track Log - Related Links

Times and Time Zones

All times are in EDT time to prevent confusion due to time zone crossing. See the SWA1031 flight status page for this flight to view local times or setup timezone preferences in your user account.

Time Position Orientation Groundspeed Altitude Reporting Facility
EDT Latitude Longitude Course Direction KTS MPH feet Rate Location/Type
Tue 09:24:44 PM 41.8000 -87.7167 207° Southwest 162 186 2,000  Level Chicago TRACON
Tue 09:26:32 PM 41.7228 -87.7372 191° South 240 276 6,200 2,576 Climbing Chicago Center
Tue 09:27:34 PM 41.6689 -87.8122 226° Southwest 272 313 9,300 2,878 Climbing Chicago Center
Tue 09:28:35 PM 41.5983 -87.9086 226° Southwest 303 349 12,100 2,683 Climbing Chicago Center
Tue 09:29:37 PM 41.5186 -87.9711 210° Southwest 340 391 14,800 2,903 Climbing Chicago Center
Tue 09:30:00 PM 41.3426 -88.1938 207° Southwest  Level FlightAware Approximate
Tue 09:30:39 PM 41.4378 -88.0203 205° Southwest 357 411 18,100  Level Chicago Center
Tue 09:31:40 PM 41.3239 -88.0858 203° Southwest 368 423 22,100 3,220 Climbing Chicago Center
Tue 09:32:42 PM 41.2247 -88.1439 204° Southwest 383 441 24,700 2,488 Climbing Chicago Center
Tue 09:33:43 PM 41.1175 -88.2061 204° Southwest 409 471 27,200 2,341 Climbing Chicago Center
Tue 09:34:45 PM 41.0094 -88.2689 204° Southwest 423 487 29,500 2,081 Climbing Chicago Center
Tue 09:35:47 PM 40.8986 -88.3328 204° Southwest 432 497 31,500 2,098 Climbing Chicago Center
Tue 09:36:48 PM 40.7853 -88.3997 204° Southwest 444 511 33,800 2,390 Climbing Chicago Center
Tue 09:37:50 PM 40.6503 -88.4769 203° Southwest 443 510 36,400 2,049 Climbing Chicago Center
Tue 09:38:51 PM 40.5397 -88.5383 203° Southwest 437 503 38,000 1,171 Climbing Chicago Center
Tue 09:39:53 PM 40.4275 -88.6053 204° Southwest 441 507 38,800 976 Climbing Chicago Center
Tue 09:40:54 PM 40.3150 -88.6719 204° Southwest 446 513 40,000 585 Climbing Chicago Center
Tue 09:41:56 PM 40.2278 -88.7858 225° Southwest 441 507 40,000  Level Chicago Center
Tue 09:42:57 PM 40.1403 -88.8956 224° Southwest 438 504 40,000  Level Chicago Center
Tue 09:43:45 PM 40.0686 -88.9833 223° Southwest 437 503 40,000  Level Kansas City Center
Tue 09:44:47 PM 39.9817 -89.0928 224° Southwest 434 499 40,000  Level Kansas City Center
Tue 09:45:48 PM 39.8947 -89.2025 224° Southwest 433 498 40,000  Level Kansas City Center
Tue 09:46:50 PM 39.8078 -89.3131 224° Southwest 434 499 40,000  Level Kansas City Center
Tue 09:47:51 PM 39.7028 -89.4444 224° Southwest 434 499 40,000  Level Kansas City Center
Tue 09:48:53 PM 39.6167 -89.5528 224° Southwest 435 501 40,000  Level Kansas City Center
Tue 09:49:54 PM 39.5289 -89.6617 224° Southwest 438 504 40,000  Level Kansas City Center
Tue 09:50:55 PM 39.4425 -89.7697 224° Southwest 435 501 40,000  Level Kansas City Center
Tue 09:51:57 PM 39.3556 -89.8769 224° Southwest 434 499 40,000  Level Kansas City Center
Tue 09:52:58 PM 39.2692 -89.9833 224° Southwest 432 497 40,000  Level Kansas City Center
Tue 09:54:00 PM 39.1806 -90.0931 224° Southwest 438 504 40,000  Level Kansas City Center
Tue 09:55:01 PM 39.0931 -90.2006 224° Southwest 438 504 40,000  Level Kansas City Center
Tue 09:56:03 PM 38.9867 -90.3306 224° Southwest 442 509 40,000  Level Kansas City Center
Tue 09:57:04 PM 38.8994 -90.4350 223° Southwest 437 503 40,000  Level Kansas City Center
Tue 09:58:05 PM 38.8108 -90.5431 224° Southwest 436 502 40,000  Level Kansas City Center
Tue 09:59:07 PM 38.7153 -90.6506 221° Southwest 450 518 40,000  Level Kansas City Center
Tue 10:00:08 PM 38.6297 -90.7486 222° Southwest 443 510 40,000  Level Kansas City Center
Tue 10:01:10 PM 38.5211 -90.8744 222° Southwest 443 510 40,000  Level Kansas City Center
Tue 10:02:11 PM 38.4297 -90.9781 222° Southwest 443 510 40,000  Level Kansas City Center
Tue 10:03:13 PM 38.3331 -91.0733 218° Southwest 440 506 40,000  Level Kansas City Center
Tue 10:04:14 PM 38.2361 -91.1664 217° Southwest 438 504 40,000  Level Kansas City Center
Tue 10:05:15 PM 38.1308 -91.2708 218° Southwest 436 502 40,000  Level Kansas City Center
Tue 10:06:16 PM 38.0339 -91.3639 217° Southwest 435 501 40,000  Level Kansas City Center
Tue 10:07:18 PM 37.9403 -91.4572 218° Southwest 429 494 40,000  Level Kansas City Center
Tue 10:08:19 PM 37.8433 -91.5492 217° Southwest 431 496 40,000  Level Kansas City Center
Tue 10:09:20 PM 37.7478 -91.6431 218° Southwest 432 497 40,000  Level Kansas City Center
Tue 10:10:21 PM 37.6519 -91.7369 218° Southwest 432 497 40,000  Level Kansas City Center
Tue 10:11:23 PM 37.5539 -91.8297 217° Southwest 434 499 40,000  Level Kansas City Center
Tue 10:12:24 PM 37.4567 -91.9231 217° Southwest 434 499 40,000  Level Kansas City Center
Tue 10:13:25 PM 37.3583 -92.0181 218° Southwest 438 504 40,000  Level Kansas City Center
Tue 10:14:26 PM 37.2611 -92.1111 217° Southwest 438 504 40,000  Level Kansas City Center
Tue 10:15:27 PM 37.1628 -92.2008 216° Southwest 435 501 40,000  Level Kansas City Center
Tue 10:16:28 PM 37.0636 -92.2942 217° Southwest 439 505 40,000  Level Kansas City Center
Tue 10:17:30 PM 36.9661 -92.3875 217° Southwest 440 506 40,000  Level Kansas City Center
Tue 10:18:31 PM 36.8694 -92.4778 217° Southwest 434 499 40,000  Level Kansas City Center
Tue 10:19:08 PM 36.7939 -92.5489 217° Southwest 440 506 40,000  Level Memphis Center
Tue 10:20:08 PM 36.6986 -92.6369 217° Southwest 440 506 40,000  Level Memphis Center
Tue 10:21:08 PM 36.6031 -92.7297 218° Southwest 440 506 40,000  Level Memphis Center
Tue 10:22:08 PM 36.5075 -92.8147 216° Southwest 440 506 40,000  Level Memphis Center
Tue 10:23:08 PM 36.4119 -92.9047 217° Southwest 440 506 40,000  Level Memphis Center
Tue 10:24:08 PM 36.3164 -92.9919 216° Southwest 440 506 40,000  Level Memphis Center
Tue 10:25:08 PM 36.2208 -93.0789 216° Southwest 440 506 40,000  Level Memphis Center
Tue 10:26:08 PM 36.1228 -93.1681 216° Southwest 440 506 40,000  Level Memphis Center
Tue 10:27:08 PM 36.0250 -93.2572 216° Southwest 440 506 40,000  Level Memphis Center
Tue 10:28:08 PM 35.9289 -93.3433 216° Southwest 440 506 40,000  Level Memphis Center
Tue 10:29:08 PM 35.8350 -93.4322 218° Southwest 440 506 40,000  Level Memphis Center
Tue 10:30:08 PM 35.7350 -93.5181 215° Southwest 440 506 40,000  Level Memphis Center
Tue 10:31:08 PM 35.6389 -93.6064 217° Southwest 440 506 40,000  Level Memphis Center
Tue 10:32:08 PM 35.5428 -93.6919 216° Southwest 440 506 40,000  Level Memphis Center
Tue 10:33:08 PM 35.4444 -93.7797 216° Southwest 445 512 40,000  Level Memphis Center
Tue 10:34:08 PM 35.3461 -93.8672 216° Southwest 445 512 40,000  Level Memphis Center
Tue 10:35:08 PM 35.2497 -93.9522 216° Southwest 440 506 40,000  Level Memphis Center
Tue 10:36:08 PM 35.1514 -94.0394 216° Southwest 440 506 40,000  Level Memphis Center
Tue 10:37:08 PM 35.0656 -94.1194 217° Southwest 440 506 40,000  Level Memphis Center
Tue 10:38:52 PM 34.8894 -94.2747 216° Southwest 437 503 40,000  Level Fort Worth Center
Tue 10:39:52 PM 34.8056 -94.3486 216° Southwest 431 496 40,000  Level Fort Worth Center
Tue 10:40:52 PM 34.7097 -94.4353 217° Southwest 431 496 40,000  Level Fort Worth Center
Tue 10:41:52 PM 34.6136 -94.5169 215° Southwest 431 496 40,000  Level Fort Worth Center
Tue 10:42:52 PM 34.5156 -94.6033 216° Southwest 431 496 40,000  Level Fort Worth Center
Tue 10:43:52 PM 34.4192 -94.6847 215° Southwest 431 496 40,000  Level Fort Worth Center
Tue 10:44:52 PM 34.3208 -94.7706 216° Southwest 437 503 40,000  Level Fort Worth Center
Tue 10:45:52 PM 34.2225 -94.8567 216° Southwest 437 503 40,000  Level Fort Worth Center
Tue 10:46:52 PM 34.1239 -94.9397 215° Southwest 437 503 40,000  Level Fort Worth Center
Tue 10:47:52 PM 34.0275 -95.0228 216° Southwest 443 510 40,000  Level Fort Worth Center
Tue 10:48:52 PM 33.9311 -95.1056 215° Southwest 443 510 40,000  Level Fort Worth Center
Tue 10:49:52 PM 33.8322 -95.1906 216° Southwest 443 510 40,000  Level Fort Worth Center
Tue 10:50:52 PM 33.7356 -95.2706 215° Southwest 443 510 40,000  Level Fort Worth Center
Tue 10:51:52 PM 33.6411 -95.3500 215° Southwest 438 504 40,000  Level Fort Worth Center
Tue 10:52:52 PM 33.5442 -95.4297 214° Southwest 433 498 40,000  Level Fort Worth Center
Tue 10:53:52 PM 33.4472 -95.5114 215° Southwest 427 491 40,000  Level Fort Worth Center
Tue 10:54:52 PM 33.3506 -95.5931 215° Southwest 421 484 40,000  Level Fort Worth Center
Tue 10:55:52 PM 33.2494 -95.6797 216° Southwest 415 478 40,000  Level Fort Worth Center
Tue 10:56:52 PM 33.1647 -95.7508 215° Southwest 421 484 40,000  Level Fort Worth Center
Tue 10:57:52 PM 33.0572 -95.8394 215° Southwest 421 484 40,000  Level Fort Worth Center
Tue 10:58:52 PM 32.9706 -95.9103 214° Southwest 421 484 40,000  Level Fort Worth Center
Tue 10:59:52 PM 32.8672 -95.9961 215° Southwest 421 484 40,000  Level Fort Worth Center
Tue 11:00:52 PM 32.7803 -96.0692 215° Southwest 421 484 40,000  Level Fort Worth Center
Tue 11:01:52 PM 32.6767 -96.1547 215° Southwest 421 484 40,000  Level Fort Worth Center
Tue 11:02:52 PM 32.5897 -96.2250 214° Southwest 421 484 40,000  Level Fort Worth Center
Tue 11:03:52 PM 32.4819 -96.3125 214° Southwest 421 484 40,000  Level Fort Worth Center
Tue 11:04:52 PM 32.3928 -96.3775 212° Southwest 427 491 40,000  Level Fort Worth Center
Tue 11:05:52 PM 32.2828 -96.4550 211° Southwest 427 491 40,000  Level Fort Worth Center
Tue 11:06:52 PM 32.1853 -96.5322 214° Southwest 422 486 40,000  Level Fort Worth Center
Tue 11:08:25 PM 32.0353 -96.6325 210° Southwest 425 489 40,000  Level Houston Center
Tue 11:09:26 PM 31.9269 -96.6950 206° Southwest 429 494 40,000  Level Houston Center
Tue 11:10:27 PM 31.8178 -96.7558 205° Southwest 429 494 40,000  Level Houston Center
Tue 11:11:28 PM 31.7081 -96.8142 204° Southwest 429 494 40,000  Level Houston Center
Tue 11:12:28 PM 31.5994 -96.8736 205° Southwest 427 491 40,000  Level Houston Center
Tue 11:13:31 PM 31.4903 -96.9331 205° Southwest 427 491 40,000  Level Houston Center
Tue 11:14:30 PM 31.3825 -96.9922 205° Southwest 424 488 40,000  Level Houston Center
Tue 11:15:31 PM 31.2733 -97.0519 205° Southwest 426 490 40,000 -49 Level Houston Center
Tue 11:16:32 PM 31.1650 -97.1100 205° Southwest 424 488 39,900 -541 Descending Houston Center
Tue 11:17:33 PM 31.0547 -97.1689 205° Southwest 428 493 38,900 -984 Descending Houston Center
Tue 11:18:34 PM 30.9406 -97.2292 204° Southwest 435 501 37,900 -984 Descending Houston Center
Tue 11:19:35 PM 30.8300 -97.2894 205° Southwest 439 505 36,900 -942 Descending Houston Center
Tue 11:20:35 PM 30.7128 -97.3514 204° Southwest 429 494 36,000 -446 Descending Houston Center
Tue 11:21:36 PM 30.6056 -97.4092 205° Southwest 421 484 36,000 -984 Level Houston Center
Tue 11:22:37 PM 30.4961 -97.4669 204° Southwest 426 490 34,000 -3,246 Descending Houston Center
Tue 11:23:38 PM 30.3814 -97.5292 205° Southwest 447 514 29,400 -4,314 Descending Houston Center
Tue 11:24:38 PM 30.2722 -97.6033 210° Southwest 449 517 25,300 -4,052 Descending Houston Center
Tue 11:24:55 PM 30.2433 -97.6242 212° Southwest 459 528 24,200 -4,271 Descending Houston Center
Tue 11:25:37 PM 30.1589 -97.6836 211° Southwest 447 514 21,100 -3,711 Descending Houston Center
Tue 11:26:32 PM 30.0661 -97.7461 210° Southwest 434 499 18,200 -3,183 Descending Houston Center
Tue 11:27:32 PM 29.9678 -97.8142 211° Southwest 410 472 15,000 -2,579 Descending Houston Center
Tue 11:28:33 PM 29.8886 -97.8869 219° Southwest 368 423 13,000 -1,603 Descending Houston Center
Tue 11:29:28 PM 29.8506 -97.9714 243° Southwest 301 346 11,900 -1,252 Descending Houston Center
Tue 11:30:28 PM 29.8144 -98.0578 244° Southwest 289 333 10,600 -1,360 Descending Houston Center
Tue 11:30:43 PM 29.8069 -98.0764 245° Southwest 288 331 10,200 -1,574 Descending Houston Center
Tue 11:31:29 PM 29.7800 -98.1367 243° Southwest 276 318 9,000 -1,672 Descending Houston Center
Tue 11:31:44 PM 29.7706 -98.1617 246° West 276 318 8,500 -1,889 Descending Houston Center
Tue 11:32:23 PM 29.7492 -98.2103 243° Southwest 275 316 7,300 -1,700 Descending Houston Center
Tue 11:32:44 PM 29.7367 -98.2417 245° Southwest 279 321 6,800 -1,377 Descending Houston Center
Tue 11:33:24 PM 29.7167 -98.2914 245° Southwest 277 319 5,900 -1,475 Descending Houston Center
Tue 11:33:45 PM 29.7044 -98.3203 244° Southwest 273 314 5,300 -2,100 Descending Houston Center
Tue 11:34:24 PM 29.6861 -98.3672 246° West 265 305 3,800 -1,967 Descending Houston Center
Tue 11:34:46 PM 29.6750 -98.3967 247° West 263 303 3,300 -590 Descending Houston Center
Tue 11:35:25 PM 29.6578 -98.4478 249° West 249 287 3,200 -300 Descending Houston Center
Tue 11:35:46 PM 29.6486 -98.4667 241° Southwest 253 291 3,000 -393 Descending Houston Center
Tue 11:36:26 PM 29.6317 -98.5061 244° Southwest 189 217 2,800 -197 Descending Houston Center
Tue 11:36:47 PM 29.6192 -98.5203 225° Southwest 177 204 2,800 -200 Level Houston Center
Tue 11:37:26 PM 29.5986 -98.5364 214° Southwest 129 148 2,600 -590 Descending Houston Center
Tue 11:37:48 PM 29.5847 -98.5347 174° South 138 159 2,200 -984 Descending Houston Center
Tue 11:38:27 PM 29.5700 -98.5206 140° Southeast 108 124 1,600 -900 Descending Houston Center
Tue 11:38:48 PM 29.5622 -98.5100 130° Southeast 114 131 1,300 -659 Descending Houston Center
Tue 11:39:49 PM 29.5406 -98.4808 130° Southeast 120 138 700 -590 Descending Houston Center
Tue 11:41:00 PM 29.5340 -98.4691 198° South  Level Estimated
Tue 11:48:00 PM 29.5333 -98.4667 16° North  Level FlightAware Approximate

Login

Don't have an account? Register now (free) for customized features, flight alerts, and more!